createdAt,value
2022-10-15T00:00:49.867Z,100694.14
2022-10-15T00:01:52.034Z,100701.05
2022-10-15T00:02:54.271Z,100696.72
2022-10-15T00:03:56.182Z,100695.85
2022-10-15T00:04:58.132Z,100698.44
2022-10-15T00:06:06.539Z,100689.84
2022-10-15T00:07:08.477Z,100685.56
2022-10-15T00:08:11.427Z,100690.75
2022-10-15T00:09:13.375Z,100692.47
2022-10-15T00:10:16.155Z,100694.20
2022-10-15T00:11:21.605Z,100697.67
2022-10-15T00:12:24.613Z,100700.27
2022-10-15T00:13:26.348Z,100692.45
2022-10-15T00:14:28.704Z,100696.72
2022-10-15T00:15:30.912Z,100688.08
2022-10-15T00:16:33.242Z,100699.18
2022-10-15T00:17:36.015Z,100690.59
2022-10-15T00:18:38.235Z,100693.98
2022-10-15T00:19:40.025Z,100698.34
2022-10-15T00:20:42.013Z,100690.64
2022-10-15T00:21:43.770Z,100690.64
2022-10-15T00:22:45.480Z,100691.41
2022-10-15T00:23:48.016Z,100692.22
2022-10-15T00:24:49.714Z,100692.22
2022-10-15T00:27:13.642Z,100688.69
2022-10-15T00:28:17.069Z,100685.38
2022-10-15T00:29:19.222Z,100682.77
2022-10-15T00:30:21.154Z,100683.55
2022-10-15T00:31:25.206Z,100680.97
2022-10-15T00:32:27.098Z,100679.25
2022-10-15T00:33:28.994Z,100681.87
2022-10-15T00:34:30.869Z,100681.87
2022-10-15T00:35:33.938Z,100679.31
2022-10-15T00:36:37.090Z,100681.97
2022-10-15T00:37:38.946Z,100678.59
2022-10-15T00:38:40.841Z,100683.76
2022-10-15T00:39:42.973Z,100678.59
2022-10-15T00:40:45.288Z,100676.85
2022-10-15T00:41:48.349Z,100680.30
2022-10-15T00:42:50.682Z,100679.30
2022-10-15T00:43:58.155Z,100685.30
2022-10-15T00:45:00.738Z,100682.61
2022-10-15T00:46:03.824Z,100686.84
2022-10-15T00:47:27.522Z,100681.70
2022-10-15T00:48:32.121Z,100684.23
2022-10-15T00:49:42.733Z,100682.35
2022-10-15T00:50:46.127Z,100679.77
2022-10-15T00:53:08.169Z,100683.05
2022-10-15T00:54:12.127Z,100679.77
2022-10-15T00:55:24.682Z,100689.30
2022-10-15T00:56:29.168Z,100681.59
2022-10-15T00:57:32.989Z,100684.27
2022-10-15T00:58:36.179Z,100691.20
2022-10-15T00:59:43.896Z,100683.44
2022-10-15T01:00:45.991Z,100678.41
2022-10-15T01:01:48.475Z,100687.03
2022-10-15T01:02:50.179Z,100681.89
2022-10-15T01:03:54.747Z,100683.70
2022-10-15T01:04:56.788Z,100690.71
2022-10-15T01:05:58.958Z,100689.86
2022-10-15T01:07:00.999Z,100682.96
2022-10-15T01:08:02.877Z,100690.67
2022-10-15T01:09:06.151Z,100689.72
2022-10-15T01:10:10.843Z,100686.24
2022-10-15T01:11:26.381Z,100682.73
2022-10-15T01:12:54.418Z,100689.64
2022-10-15T01:14:21.284Z,100681.00
2022-10-15T01:15:44.898Z,100684.34
2022-10-15T01:17:03.088Z,100688.67
2022-10-15T01:18:11.941Z,100679.97
2022-10-15T01:19:33.970Z,100686.84
2022-10-15T01:21:04.264Z,100680.78
2022-10-15T01:22:10.939Z,100686.80
2022-10-15T01:23:32.957Z,100685.02
2022-10-15T01:24:42.490Z,100686.71
2022-10-15T01:26:17.160Z,100685.81
2022-10-15T01:27:34.188Z,100684.97
2022-10-15T01:29:04.808Z,100681.53
2022-10-15T01:30:20.613Z,100681.53
2022-10-15T01:31:30.780Z,100681.63
2022-10-15T01:32:36.288Z,100690.25
2022-10-15T01:33:45.233Z,100683.39
2022-10-15T01:34:51.559Z,100686.88
2022-10-15T01:36:14.254Z,100686.93
2022-10-15T01:37:23.245Z,100682.62
2022-10-15T01:38:51.394Z,100683.52
2022-10-15T01:40:09.044Z,100687.87
2022-10-15T01:41:27.933Z,100693.12
2022-10-15T01:42:36.492Z,100681.09
2022-10-15T01:43:57.134Z,100691.48
2022-10-15T01:45:10.719Z,100690.66
2022-10-15T01:46:30.008Z,100687.20
2022-10-15T01:47:51.792Z,100690.66
2022-10-15T01:48:56.896Z,100690.66
2022-10-15T01:50:01.971Z,100687.20
2022-10-15T01:51:07.085Z,100694.95
2022-10-15T01:53:34.916Z,100681.89
2022-10-15T01:54:39.088Z,100691.48
2022-10-15T01:55:44.506Z,100698.36
2022-10-15T01:56:49.377Z,100697.47
2022-10-15T01:57:56.605Z,100691.48
2022-10-15T01:59:02.258Z,100694.07
2022-10-15T02:00:05.875Z,100688.10
2022-10-15T02:01:10.099Z,100695.00
2022-10-15T02:02:13.433Z,100694.14
2022-10-15T02:03:15.632Z,100701.89
2022-10-15T02:04:25.959Z,100700.17
2022-10-15T02:05:31.691Z,100704.50
2022-10-15T02:06:37.528Z,100704.47
2022-10-15T02:07:49.187Z,100701.84
2022-10-15T02:08:57.436Z,100706.98
2022-10-15T02:10:05.672Z,100705.22
2022-10-15T02:11:14.086Z,100697.45
2022-10-15T02:12:32.160Z,100700.88
2022-10-15T02:13:51.308Z,100702.56
2022-10-15T02:14:59.826Z,100707.70
2022-10-15T02:16:23.102Z,100709.39
2022-10-15T02:17:42.147Z,100700.82
2022-10-15T02:20:21.893Z,100706.70
2022-10-15T02:21:30.666Z,100704.30
2022-10-15T02:22:37.259Z,100705.13
2022-10-15T02:23:49.221Z,100709.50
2022-10-15T02:25:03.774Z,100705.99
2022-10-15T02:26:08.896Z,100706.78
2022-10-15T02:27:14.375Z,100711.08
2022-10-15T02:28:18.372Z,100714.53
2022-10-15T02:29:23.455Z,100708.53
2022-10-15T02:30:28.365Z,100712.80
2022-10-15T02:31:33.077Z,100712.80
2022-10-15T02:32:38.120Z,100714.52
2022-10-15T02:33:41.258Z,100714.52
2022-10-15T02:34:45.536Z,100717.95
2022-10-15T02:35:50.646Z,100708.42
2022-10-15T02:36:54.037Z,100719.61
2022-10-15T02:37:59.584Z,100714.45
2022-10-15T02:39:04.484Z,100716.17
2022-10-15T02:40:08.615Z,100717.89
2022-10-15T02:41:13.325Z,100722.21
2022-10-15T02:42:18.062Z,100724.77
2022-10-15T02:43:21.512Z,100716.18
2022-10-15T02:44:25.386Z,100727.33
2022-10-15T02:45:27.346Z,100717.00
2022-10-15T02:46:31.062Z,100713.51
2022-10-15T02:47:33.519Z,100717.81
2022-10-15T02:48:37.049Z,100713.51
2022-10-15T02:49:38.820Z,100716.94
2022-10-15T02:50:40.976Z,100717.81
2022-10-15T02:51:42.754Z,100726.48
2022-10-15T02:52:44.480Z,100721.34
2022-10-15T02:53:47.299Z,100723.93
2022-10-15T02:54:48.976Z,100721.32
2022-10-15T02:55:52.057Z,100721.32
2022-10-15T02:56:54.133Z,100718.73
2022-10-15T02:57:56.820Z,100722.16
2022-10-15T02:58:58.542Z,100723.85
2022-10-15T03:00:00.299Z,100717.78
2022-10-15T03:01:03.887Z,100723.77
2022-10-15T03:02:05.894Z,100725.45
2022-10-15T03:03:08.296Z,100719.42
2022-10-15T03:04:10.418Z,100708.18
2022-10-15T03:05:13.369Z,100715.03
2022-10-15T03:06:15.531Z,100710.68
2022-10-15T03:07:17.529Z,100718.41
2022-10-15T03:08:19.623Z,100711.52
2022-10-15T03:09:21.687Z,100717.53
2022-10-15T03:10:25.005Z,100708.91
2022-10-15T03:11:27.111Z,100718.35
2022-10-15T03:12:28.848Z,100712.34
2022-10-15T03:13:32.657Z,100709.75
2022-10-15T03:14:34.729Z,100709.75
2022-10-15T03:15:38.036Z,100713.20
2022-10-15T03:16:41.174Z,100712.34
2022-10-15T03:17:45.378Z,100710.66
2022-10-15T03:18:49.493Z,100705.48
2022-10-15T03:19:52.784Z,100714.08
2022-10-15T03:20:55.984Z,100709.75
2022-10-15T03:21:58.970Z,100707.16
2022-10-15T03:23:02.842Z,100714.11
2022-10-15T03:24:06.363Z,100710.70
2022-10-15T03:25:08.529Z,100703.82
2022-10-15T03:26:13.098Z,100709.84
2022-10-15T03:27:15.201Z,100711.52
2022-10-15T03:28:17.789Z,100714.11
2022-10-15T03:29:19.678Z,100710.70
2022-10-15T03:30:23.442Z,100706.38
2022-10-15T03:31:25.274Z,100710.70
2022-10-15T03:32:32.009Z,100717.63
2022-10-15T03:33:33.613Z,100710.73
2022-10-15T03:34:36.460Z,100709.02
2022-10-15T03:35:39.645Z,100703.85
2022-10-15T03:36:41.990Z,100708.18
2022-10-15T03:37:44.997Z,100709.02
2022-10-15T03:38:46.748Z,100709.02
2022-10-15T03:39:48.952Z,100712.45
2022-10-15T03:40:52.097Z,100708.13
2022-10-15T03:42:01.639Z,100704.66
2022-10-15T03:43:05.529Z,100710.70
2022-10-15T03:44:10.535Z,100707.25
2022-10-15T03:45:14.411Z,100706.34
2022-10-15T03:46:16.901Z,100710.65
2022-10-15T03:47:20.684Z,100709.78
2022-10-15T03:48:23.929Z,100702.89
2022-10-15T03:49:26.788Z,100701.15
2022-10-15T03:50:29.222Z,100702.87
2022-10-15T03:51:32.309Z,100707.16
2022-10-15T03:52:37.105Z,100701.18
2022-10-15T03:53:39.071Z,100707.19
2022-10-15T03:54:41.580Z,100711.52
2022-10-15T03:55:44.299Z,100709.84
2022-10-15T03:56:46.312Z,100709.84
2022-10-15T03:57:59.162Z,100703.82
2022-10-15T03:59:01.373Z,100710.70
2022-10-15T04:00:05.599Z,100711.61
2022-10-15T04:01:15.502Z,100709.02
2022-10-15T04:02:17.808Z,100717.64
2022-10-15T04:03:20.638Z,100709.02
2022-10-15T04:04:23.268Z,100708.18
2022-10-15T04:05:25.098Z,100713.34
2022-10-15T04:06:29.975Z,100710.81
2022-10-15T04:07:33.826Z,100711.73
2022-10-15T04:08:36.330Z,100712.64
2022-10-15T04:09:40.035Z,100710.92
2022-10-15T04:10:59.554Z,100707.47
2022-10-15T04:12:01.575Z,100711.77
2022-10-15T04:13:03.307Z,100713.54
2022-10-15T04:14:07.259Z,100705.81
2022-10-15T04:15:11.246Z,100716.15
2022-10-15T04:16:15.635Z,100712.67
2022-10-15T04:17:17.995Z,100720.42
2022-10-15T04:18:20.824Z,100714.36
2022-10-15T04:19:24.775Z,100719.55
2022-10-15T04:20:28.596Z,100720.45
2022-10-15T04:21:32.239Z,100716.30
2022-10-15T04:22:37.316Z,100722.31
2022-10-15T04:23:41.154Z,100719.70
2022-10-15T04:24:53.638Z,100716.30
2022-10-15T04:26:03.279Z,100714.66
2022-10-15T04:27:05.390Z,100718.12
2022-10-15T04:28:07.575Z,100716.35
2022-10-15T04:29:10.646Z,100716.33
2022-10-15T04:30:13.580Z,100719.76
2022-10-15T04:31:20.424Z,100714.59
2022-10-15T04:32:23.734Z,100718.12
2022-10-15T04:33:26.535Z,100714.81
2022-10-15T04:34:30.179Z,100714.76
2022-10-15T04:35:31.968Z,100715.58
2022-10-15T04:36:44.724Z,100712.20
2022-10-15T04:37:48.622Z,100713.89
2022-10-15T04:38:52.342Z,100717.31
2022-10-15T04:39:57.246Z,100716.45
2022-10-15T04:41:08.458Z,100710.41
2022-10-15T04:42:15.022Z,100707.84
2022-10-15T04:43:17.819Z,100708.72
2022-10-15T04:44:19.686Z,100719.92
2022-10-15T04:46:26.415Z,100720.77
2022-10-15T04:47:30.221Z,100713.92
2022-10-15T04:48:43.452Z,100711.37
2022-10-15T04:49:47.621Z,100709.66
2022-10-15T04:52:14.012Z,100712.16
2022-10-15T04:53:18.861Z,100707.98
2022-10-15T04:54:22.722Z,100712.30
2022-10-15T04:55:33.134Z,100713.22
2022-10-15T04:56:35.667Z,100714.06
2022-10-15T04:57:37.528Z,100713.23
2022-10-15T04:58:39.740Z,100723.61
2022-10-15T04:59:43.041Z,100720.18
2022-10-15T05:01:07.188Z,100717.60
2022-10-15T05:02:11.025Z,100724.52
2022-10-15T05:03:13.191Z,100718.53
2022-10-15T05:04:19.945Z,100715.06
2022-10-15T05:05:21.795Z,100722.80
2022-10-15T05:06:35.803Z,100723.67
2022-10-15T05:07:39.598Z,100727.06
2022-10-15T05:08:42.392Z,100724.45
2022-10-15T05:09:46.598Z,100722.70
2022-10-15T05:10:49.174Z,100727.84
2022-10-15T05:11:51.770Z,100725.27
2022-10-15T05:12:56.809Z,100727.80
2022-10-15T05:14:01.959Z,100725.22
2022-10-15T05:15:04.853Z,100733.84
2022-10-15T05:16:19.893Z,100725.27
2022-10-15T05:17:22.437Z,100727.05
2022-10-15T05:18:25.392Z,100723.61
2022-10-15T05:19:27.331Z,100731.31
2022-10-15T05:20:29.133Z,100727.84
2022-10-15T05:21:31.909Z,100731.26
2022-10-15T05:22:35.811Z,100738.98
2022-10-15T05:23:38.786Z,100727.80
2022-10-15T05:24:51.693Z,100732.97
2022-10-15T05:26:04.374Z,100735.53
2022-10-15T05:27:06.226Z,100735.50
2022-10-15T05:28:08.165Z,100734.64
2022-10-15T05:29:09.942Z,100741.52
2022-10-15T05:30:12.053Z,100741.48
2022-10-15T05:31:19.994Z,100738.87
2022-10-15T05:33:27.186Z,100745.69
2022-10-15T05:34:29.180Z,100737.07
2022-10-15T05:35:33.079Z,100741.34
2022-10-15T05:36:36.138Z,100743.95
2022-10-15T05:37:38.419Z,100745.67
2022-10-15T05:38:41.669Z,100738.78
2022-10-15T05:39:43.836Z,100753.42
2022-10-15T05:40:49.497Z,100751.66
2022-10-15T05:41:53.927Z,100740.52
2022-10-15T05:42:57.692Z,100750.83
2022-10-15T05:44:00.378Z,100756.05
2022-10-15T05:45:05.074Z,100756.08
2022-10-15T05:46:08.027Z,100754.38
2022-10-15T05:47:10.339Z,100752.71
2022-10-15T05:48:12.088Z,100754.45
2022-10-15T05:49:14.139Z,100752.73
2022-10-15T05:50:18.113Z,100761.38
2022-10-15T05:51:23.548Z,100758.81
2022-10-15T05:52:27.517Z,100759.66
2022-10-15T05:53:36.730Z,100754.55
2022-10-15T05:54:40.518Z,100763.22
2022-10-15T05:55:42.751Z,100761.53
2022-10-15T05:56:44.653Z,100751.23
2022-10-15T05:57:46.854Z,100753.84
2022-10-15T05:58:49.856Z,100755.55
2022-10-15T05:59:52.433Z,100753.01
2022-10-15T06:00:59.359Z,100758.17
2022-10-15T06:02:01.316Z,100759.03
2022-10-15T06:03:03.909Z,100759.02
2022-10-15T06:04:06.130Z,100757.28
2022-10-15T06:05:09.870Z,100757.26
2022-10-15T06:06:15.335Z,100759.83
2022-10-15T06:07:18.567Z,100759.78
2022-10-15T06:08:21.309Z,100758.05
2022-10-15T06:09:23.376Z,100758.05
2022-10-15T06:10:25.311Z,100756.38
2022-10-15T06:11:27.583Z,100770.11
2022-10-15T06:12:29.571Z,100761.50
2022-10-15T06:13:31.324Z,100758.95
2022-10-15T06:14:35.596Z,100764.95
2022-10-15T06:15:42.090Z,100766.66
2022-10-15T06:16:45.513Z,100754.60
2022-10-15T06:17:47.449Z,100756.27
2022-10-15T06:18:50.375Z,100759.70
2022-10-15T06:19:52.250Z,100763.12
2022-10-15T06:20:54.251Z,100765.67
2022-10-15T06:21:57.501Z,100768.24
2022-10-15T06:22:59.928Z,100767.41
2022-10-15T06:24:05.144Z,100765.72
2022-10-15T06:25:07.870Z,100773.42
2022-10-15T06:26:10.920Z,100769.95
2022-10-15T06:27:13.218Z,100770.03
2022-10-15T06:28:15.324Z,100770.05
2022-10-15T06:29:17.322Z,100770.89
2022-10-15T06:30:20.179Z,100772.56
2022-10-15T06:31:21.993Z,100775.13
2022-10-15T06:32:23.855Z,100769.08
2022-10-15T06:33:26.330Z,100761.28
2022-10-15T06:34:28.229Z,100764.71
2022-10-15T06:35:29.957Z,100766.48
2022-10-15T06:36:31.817Z,100775.02
2022-10-15T06:37:33.983Z,100767.28
2022-10-15T06:38:36.607Z,100772.41
2022-10-15T06:39:39.385Z,100771.45
2022-10-15T06:40:41.225Z,100776.63
2022-10-15T06:41:43.060Z,100777.45
2022-10-15T06:42:45.855Z,100773.11
2022-10-15T06:43:50.543Z,100781.66
2022-10-15T06:44:52.380Z,100775.64
2022-10-15T06:45:54.682Z,100779.09
2022-10-15T06:46:56.596Z,100774.80
2022-10-15T06:47:58.892Z,100774.75
2022-10-15T06:49:00.730Z,100777.36
2022-10-15T06:50:04.025Z,100780.77
2022-10-15T06:51:05.942Z,100779.84
2022-10-15T06:52:07.605Z,100778.03
2022-10-15T06:53:09.430Z,100778.03
2022-10-15T06:54:11.330Z,100782.26
2022-10-15T06:55:13.336Z,100786.50
2022-10-15T06:56:16.370Z,100777.88
2022-10-15T06:57:20.330Z,100781.31
2022-10-15T06:58:22.049Z,100783.05
2022-10-15T06:59:24.240Z,100781.31
2022-10-15T07:00:27.504Z,100780.38
2022-10-15T07:01:30.117Z,100783.80
2022-10-15T07:02:33.716Z,100790.59
2022-10-15T07:03:36.213Z,100781.97
2022-10-15T07:04:38.652Z,100785.34
2022-10-15T07:05:40.350Z,100788.77
2022-10-15T07:06:42.106Z,100785.25
2022-10-15T07:07:53.459Z,100786.88
2022-10-15T07:08:55.768Z,100793.02
2022-10-15T07:09:58.637Z,100791.33
2022-10-15T07:11:03.669Z,100797.31
2022-10-15T07:12:06.598Z,100798.05
2022-10-15T07:13:08.488Z,100791.09
2022-10-15T07:14:10.420Z,100797.05
2022-10-15T07:15:12.199Z,100797.00
2022-10-15T07:16:14.376Z,100791.73
2022-10-15T07:17:16.816Z,100793.34
2022-10-15T07:18:19.300Z,100796.78
2022-10-15T07:19:22.261Z,100795.06
2022-10-15T07:20:24.562Z,100797.62
2022-10-15T07:21:26.580Z,100794.97
2022-10-15T07:22:29.339Z,100795.77
2022-10-15T07:23:31.814Z,100795.70
2022-10-15T07:24:33.712Z,100796.48
2022-10-15T07:25:35.464Z,100793.83
2022-10-15T07:26:37.406Z,100800.62
2022-10-15T07:27:40.454Z,100794.46
2022-10-15T07:28:43.266Z,100796.17
2022-10-15T07:29:45.311Z,100796.11
2022-10-15T07:30:47.206Z,100796.03
2022-10-15T07:31:48.968Z,100796.84
2022-10-15T07:32:51.237Z,100797.75
2022-10-15T07:33:53.987Z,100802.02
2022-10-15T07:34:55.812Z,100801.14
2022-10-15T07:35:58.286Z,100792.50
2022-10-15T07:37:00.276Z,100801.14
2022-10-15T07:38:02.693Z,100800.20
2022-10-15T07:39:04.756Z,100800.23
2022-10-15T07:40:08.720Z,100807.13
2022-10-15T07:41:13.235Z,100803.63
2022-10-15T07:42:19.092Z,100804.39
2022-10-15T07:43:20.975Z,100795.66
2022-10-15T07:44:22.698Z,100805.05
2022-10-15T07:45:26.109Z,100806.64
2022-10-15T07:46:28.025Z,100806.61
2022-10-15T07:47:30.043Z,100803.82
2022-10-15T07:48:33.191Z,100797.71
2022-10-15T07:49:35.062Z,100801.06
2022-10-15T07:50:38.162Z,100802.78
2022-10-15T07:51:40.880Z,100801.02
2022-10-15T07:52:42.967Z,100799.13
2022-10-15T07:53:45.472Z,100797.25
2022-10-15T07:54:47.367Z,100798.05
2022-10-15T07:55:51.404Z,100797.20
2022-10-15T07:56:53.187Z,100799.68
2022-10-15T07:57:58.631Z,100800.55
2022-10-15T07:59:00.448Z,100794.44
2022-10-15T08:00:03.243Z,100800.38
2022-10-15T08:01:09.408Z,100803.02
2022-10-15T08:03:28.991Z,100801.83
2022-10-15T08:04:32.211Z,100801.88
2022-10-15T08:05:34.442Z,100805.17
2022-10-15T08:06:36.390Z,100799.97
2022-10-15T08:07:38.369Z,100804.19
2022-10-15T08:08:42.258Z,100804.05
2022-10-15T08:09:44.120Z,100806.52
2022-10-15T08:10:46.704Z,100801.33
2022-10-15T08:11:49.215Z,100802.98
2022-10-15T08:12:52.686Z,100800.20
2022-10-15T08:13:54.772Z,100802.65
2022-10-15T08:14:56.499Z,100802.50
2022-10-15T08:16:00.227Z,100803.44
2022-10-15T08:17:03.875Z,100800.84
2022-10-15T08:18:07.385Z,100802.45
2022-10-15T08:19:10.173Z,100799.02
2022-10-15T08:20:12.734Z,100792.03
2022-10-15T08:21:14.864Z,100794.48
2022-10-15T08:22:17.083Z,100797.02
2022-10-15T08:23:18.885Z,100791.67
2022-10-15T08:24:20.705Z,100794.11
2022-10-15T08:25:22.588Z,100793.08
2022-10-15T08:26:24.447Z,100799.89
2022-10-15T08:27:26.942Z,100796.41
2022-10-15T08:28:32.119Z,100793.63
2022-10-15T08:29:34.345Z,100786.41
2022-10-15T08:30:37.639Z,100786.41
2022-10-15T08:31:41.923Z,100793.77
2022-10-15T08:32:44.210Z,100793.59
2022-10-15T08:33:46.386Z,100795.14
2022-10-15T08:34:49.202Z,100789.87
2022-10-15T08:35:52.192Z,100791.30
2022-10-15T08:36:54.197Z,100793.91
2022-10-15T08:37:56.882Z,100794.66
2022-10-15T08:38:59.066Z,100789.21
2022-10-15T08:40:02.276Z,100792.52
2022-10-15T08:41:07.771Z,100794.18
2022-10-15T08:42:34.549Z,100790.56
2022-10-15T08:43:39.953Z,100790.48
2022-10-15T08:44:53.024Z,100793.67
2022-10-15T08:45:58.756Z,100794.13
2022-10-15T08:47:23.813Z,100793.88
2022-10-15T08:48:50.732Z,100788.86
2022-10-15T08:49:56.321Z,100795.78
2022-10-15T08:51:16.930Z,100792.87
2022-10-15T08:52:31.650Z,100792.69
2022-10-15T08:53:39.860Z,100791.71
2022-10-15T08:54:42.560Z,100798.49
2022-10-15T08:55:48.150Z,100787.39
2022-10-15T08:56:56.540Z,100792.52
2022-10-15T08:58:02.199Z,100793.50
2022-10-15T08:59:19.156Z,100792.52
2022-10-15T09:00:31.406Z,100791.32
2022-10-15T09:01:46.099Z,100790.17
2022-10-15T09:03:06.794Z,100788.33
2022-10-15T09:04:41.805Z,100792.36
2022-10-15T09:06:06.247Z,100794.95
2022-10-15T09:07:14.449Z,100797.36
2022-10-15T09:08:38.024Z,100788.80
2022-10-15T09:09:43.520Z,100787.17
2022-10-15T09:10:49.121Z,100791.45
2022-10-15T09:12:04.055Z,100787.17
2022-10-15T09:13:16.663Z,100783.67
2022-10-15T09:14:22.415Z,100783.31
2022-10-15T09:15:27.861Z,100781.80
2022-10-15T09:16:36.890Z,100776.70
2022-10-15T09:17:41.481Z,100778.58
2022-10-15T09:18:49.292Z,100780.15
2022-10-15T09:19:56.016Z,100782.67
2022-10-15T09:20:59.768Z,100785.10
2022-10-15T09:22:01.724Z,100784.94
2022-10-15T09:23:05.396Z,100786.41
2022-10-15T09:24:11.981Z,100791.45
2022-10-15T09:26:41.034Z,100785.14
2022-10-15T09:27:45.761Z,100790.59
2022-10-15T09:28:56.908Z,100789.42
2022-10-15T09:30:29.186Z,100786.05
2022-10-15T09:31:35.743Z,100793.05
2022-10-15T09:32:50.626Z,100790.50
2022-10-15T09:33:55.791Z,100789.42
2022-10-15T09:35:06.116Z,100794.84
2022-10-15T09:36:17.797Z,100793.19
2022-10-15T09:37:35.575Z,100791.14
2022-10-15T09:39:07.351Z,100791.14
2022-10-15T09:40:28.448Z,100790.16
2022-10-15T09:41:52.623Z,100786.59
2022-10-15T09:42:57.893Z,100776.80
2022-10-15T09:44:02.916Z,100786.33
2022-10-15T09:45:13.959Z,100778.30
2022-10-15T09:46:17.459Z,100773.89
2022-10-15T09:47:25.986Z,100775.45
2022-10-15T09:48:36.214Z,100780.13
2022-10-15T09:49:38.069Z,100780.13
2022-10-15T09:50:58.774Z,100778.35
2022-10-15T09:52:05.022Z,100780.00
2022-10-15T09:53:28.851Z,100774.58
2022-10-15T09:54:47.591Z,100777.30
2022-10-15T09:55:54.225Z,100778.80
2022-10-15T09:56:58.720Z,100776.59
2022-10-15T09:58:08.079Z,100775.53
2022-10-15T09:59:17.433Z,100771.97
2022-10-15T10:00:20.011Z,100771.06
2022-10-15T10:01:26.977Z,100776.07
2022-10-15T10:02:29.990Z,100777.78
2022-10-15T10:03:34.714Z,100775.80
2022-10-15T10:04:36.503Z,100770.86
2022-10-15T10:05:38.550Z,100775.98
2022-10-15T10:06:52.853Z,100782.72
2022-10-15T10:08:13.589Z,100781.60
2022-10-15T10:09:22.744Z,100775.97
2022-10-15T10:10:30.971Z,100775.72
2022-10-15T10:11:36.558Z,100768.51
2022-10-15T10:12:38.738Z,100773.56
2022-10-15T10:14:00.692Z,100773.85
2022-10-15T10:15:06.202Z,100769.60
2022-10-15T10:16:10.646Z,100768.34
2022-10-15T10:17:24.687Z,100775.14
2022-10-15T10:18:26.798Z,100769.70
2022-10-15T10:19:28.601Z,100778.42
2022-10-15T10:20:34.016Z,100765.96
2022-10-15T10:21:38.199Z,100766.70
2022-10-15T10:22:51.589Z,100770.21
2022-10-15T10:23:55.926Z,100763.19
2022-10-15T10:24:59.024Z,100771.76
2022-10-15T10:26:04.517Z,100770.56
2022-10-15T10:27:19.061Z,100763.35
2022-10-15T10:28:45.833Z,100773.55
2022-10-15T10:29:59.991Z,100763.58
2022-10-15T10:31:08.997Z,100762.32
2022-10-15T10:32:14.593Z,100781.88
2022-10-15T10:33:20.060Z,100774.30
2022-10-15T10:34:28.284Z,100774.47
2022-10-15T10:35:45.155Z,100782.13
2022-10-15T10:36:52.956Z,100768.02
2022-10-15T10:37:55.090Z,100771.47
2022-10-15T10:39:15.643Z,100759.94
2022-10-15T10:40:34.908Z,100761.81
2022-10-15T10:41:54.352Z,100770.44
2022-10-15T10:43:18.393Z,100764.38
2022-10-15T10:44:25.172Z,100763.28
2022-10-15T10:45:27.240Z,100759.68
2022-10-15T10:46:29.237Z,100770.40
2022-10-15T10:47:34.728Z,100768.46
2022-10-15T10:48:46.365Z,100762.56
2022-10-15T10:49:55.316Z,100763.97
2022-10-15T10:51:09.249Z,100761.86
2022-10-15T10:52:33.513Z,100761.63
2022-10-15T10:53:40.164Z,100760.45
2022-10-15T10:55:45.918Z,100758.50
2022-10-15T10:56:49.476Z,100752.72
2022-10-15T10:57:56.871Z,100753.55
2022-10-15T10:59:05.067Z,100749.71
2022-10-15T11:00:10.752Z,100760.62
2022-10-15T11:01:16.680Z,100759.27
2022-10-15T11:02:19.504Z,100760.23
2022-10-15T11:03:37.649Z,100758.25
2022-10-15T11:04:40.492Z,100756.23
2022-10-15T11:05:43.722Z,100753.45
2022-10-15T11:07:05.265Z,100759.30
2022-10-15T11:08:19.911Z,100749.56
2022-10-15T11:09:37.558Z,100749.75
2022-10-15T11:12:31.506Z,100752.41
2022-10-15T11:13:40.652Z,100755.63
2022-10-15T11:14:51.363Z,100753.67
2022-10-15T11:16:01.739Z,100750.16
2022-10-15T11:17:10.264Z,100751.75
2022-10-15T11:18:31.351Z,100754.15
2022-10-15T11:20:05.962Z,100748.84
2022-10-15T11:21:21.142Z,100747.02
2022-10-15T11:24:42.649Z,100741.74
2022-10-15T11:25:49.478Z,100735.59
2022-10-15T11:27:10.966Z,100742.52
2022-10-15T11:28:47.931Z,100745.90
2022-10-15T11:30:11.713Z,100740.93
2022-10-15T11:31:19.658Z,100742.27
2022-10-15T11:34:04.075Z,100738.33
2022-10-15T11:35:34.468Z,100735.91
2022-10-15T11:36:37.932Z,100738.86
2022-10-15T11:38:03.248Z,100745.16
2022-10-15T11:39:35.930Z,100743.19
2022-10-15T11:40:57.074Z,100745.80
2022-10-15T11:42:08.625Z,100746.71
2022-10-15T11:43:25.988Z,100751.41
2022-10-15T11:44:48.483Z,100742.53
2022-10-15T11:46:12.571Z,100739.65
2022-10-15T11:47:39.006Z,100736.49
2022-10-15T11:48:50.743Z,100740.41
2022-10-15T11:50:02.790Z,100736.41
2022-10-15T11:51:17.563Z,100735.11
2022-10-15T11:52:32.034Z,100738.95
2022-10-15T11:54:03.625Z,100747.44
2022-10-15T11:55:15.708Z,100738.52
2022-10-15T11:56:22.399Z,100738.02
2022-10-15T11:57:27.625Z,100743.61
2022-10-15T11:58:42.060Z,100733.13
2022-10-15T12:00:00.249Z,100736.98
2022-10-15T12:01:09.517Z,100730.20
2022-10-15T12:02:15.085Z,100721.39
2022-10-15T12:03:20.817Z,100731.92
2022-10-15T12:04:42.446Z,100725.06
2022-10-15T12:05:49.085Z,100718.52
2022-10-15T12:06:54.572Z,100727.56
2022-10-15T12:07:57.086Z,100724.16
2022-10-15T12:09:04.883Z,100724.86
2022-10-15T12:10:27.778Z,100722.48
2022-10-15T12:13:16.309Z,100722.47
2022-10-15T12:14:25.850Z,100722.78
2022-10-15T12:15:48.464Z,100724.00
2022-10-15T12:17:00.283Z,100719.77
2022-10-15T12:18:24.639Z,100729.02
2022-10-15T12:19:30.791Z,100727.64
2022-10-15T12:20:33.591Z,100718.14
2022-10-15T12:21:43.602Z,100725.37
2022-10-15T12:22:50.046Z,100728.30
2022-10-15T12:23:51.910Z,100724.89
2022-10-15T12:24:54.943Z,100726.62
2022-10-15T12:25:57.033Z,100731.19
2022-10-15T12:27:20.939Z,100725.61
2022-10-15T12:28:26.977Z,100723.40
2022-10-15T12:29:30.040Z,100722.59
2022-10-15T12:30:34.988Z,100724.41
2022-10-15T12:31:52.923Z,100722.38
2022-10-15T12:32:55.552Z,100729.50
2022-10-15T12:33:57.822Z,100720.79
2022-10-15T12:35:02.848Z,100721.87
2022-10-15T12:36:08.786Z,100726.77
2022-10-15T12:37:19.284Z,100724.89
2022-10-15T12:38:31.063Z,100723.91
2022-10-15T12:40:40.987Z,100725.45
2022-10-15T12:41:47.806Z,100720.64
2022-10-15T12:42:53.680Z,100720.64
2022-10-15T12:44:22.295Z,100726.14
2022-10-15T12:45:40.001Z,100715.30
2022-10-15T12:46:41.606Z,100718.16
2022-10-15T12:47:55.470Z,100718.02
2022-10-15T12:48:57.926Z,100722.20
2022-10-15T12:50:05.702Z,100714.84
2022-10-15T12:51:24.397Z,100714.59
2022-10-15T12:52:52.905Z,100718.16
2022-10-15T12:53:55.460Z,100721.33
2022-10-15T12:55:18.343Z,100714.61
2022-10-15T12:56:23.864Z,100712.41
2022-10-15T12:57:35.481Z,100714.84
2022-10-15T12:58:52.557Z,100717.00
2022-10-15T12:59:56.381Z,100716.48
2022-10-15T13:01:04.873Z,100711.80
2022-10-15T13:02:11.107Z,100711.05
2022-10-15T13:03:21.776Z,100715.37